Time;durP1;ratioP1;P1;durP2;ratioP2;P2;SDS_P1;SDS_P2;PMS_P1;PMS_P2;Temp;Humidity;BMP_temperature;BMP_pressure;BME280_temperature;BME280_humidity;BME280_pressure;Samples;Min_cycle;Max_cycle;Signal;HPM_P1;HPM_P2
2023/11/12 00:00:03;;;;;;;28.03;17.80;;;7.30;97.40;;;;;;5015605;28;20257;-77
2023/11/12 00:02:38;;;;;;;22.77;16.60;;;7.30;97.50;;;;;;5000570;28;20242;-77
2023/11/12 00:05:09;;;;;;;21.80;15.63;;;7.30;97.50;;;;;;5012516;28;20232;-78
2023/11/12 00:07:37;;;;;;;26.07;16.30;;;7.20;97.50;;;;;;5011838;28;20294;-77
2023/11/12 00:10:06;;;;;;;25.73;17.40;;;7.20;97.60;;;;;;5019006;28;20257;-78
2023/11/12 00:12:33;;;;;;;25.17;16.90;;;7.20;97.70;;;;;;5011692;28;20544;-77
2023/11/12 00:15:01;;;;;;;72.03;21.67;;;7.20;97.60;;;;;;5028844;28;20591;-77
2023/11/12 00:17:30;;;;;;;131.17;21.97;;;7.20;97.70;;;;;;5009206;28;20294;-77
2023/11/12 00:20:04;;;;;;;142.57;21.57;;;7.20;97.90;;;;;;5024003;28;20215;-77
2023/11/12 00:22:32;;;;;;;91.83;20.87;;;7.20;98.00;;;;;;5009440;28;20207;-78
2023/11/12 00:24:59;;;;;;;140.30;22.13;;;7.20;98.20;;;;;;4993242;28;20275;-77
2023/11/12 00:27:27;;;;;;;145.97;18.57;;;7.20;98.30;;;;;;5018340;28;20218;-77
2023/11/12 00:29:54;;;;;;;132.10;19.27;;;7.20;98.40;;;;;;5006221;28;20208;-77
2023/11/12 00:32:22;;;;;;;230.73;22.27;;;7.20;98.40;;;;;;5012880;28;20378;-77
2023/11/12 00:34:49;;;;;;;71.77;17.67;;;7.20;98.40;;;;;;4991145;28;20208;-77
2023/11/12 00:37:18;;;;;;;73.43;17.17;;;7.20;98.40;;;;;;5013067;28;20526;-77
2023/11/12 00:39:45;;;;;;;120.60;18.97;;;7.20;98.50;;;;;;5010744;28;20272;-77
2023/11/12 00:42:12;;;;;;;88.20;17.70;;;7.10;98.50;;;;;;5000226;28;20289;-77
2023/11/12 00:44:40;;;;;;;37.10;16.27;;;7.10;98.50;;;;;;5010232;28;20390;-77
2023/11/12 00:47:08;;;;;;;26.20;15.10;;;7.10;98.50;;;;;;5010566;28;20228;-77
2023/11/12 00:49:36;;;;;;;32.97;14.60;;;7.10;98.50;;;;;;5010823;28;20196;-78
2023/11/12 00:52:03;;;;;;;34.20;14.30;;;7.00;98.60;;;;;;4997585;28;20232;-77
2023/11/12 00:54:35;;;;;;;43.07;14.73;;;7.00;98.60;;;;;;4998224;28;20266;-77
2023/11/12 00:57:02;;;;;;;63.77;15.20;;;7.00;98.70;;;;;;5005011;28;20664;-77
2023/11/12 00:59:30;;;;;;;205.47;19.03;;;7.00;98.60;;;;;;4997931;28;20230;-77
2023/11/12 01:01:58;;;;;;;254.07;19.93;;;7.00;98.50;;;;;;4998522;28;20210;-77
2023/11/12 01:04:27;;;;;;;223.40;22.33;;;6.90;98.60;;;;;;5010941;28;20215;-77
2023/11/12 01:06:54;;;;;;;133.30;20.73;;;6.90;98.70;;;;;;5000923;28;20225;-78
2023/11/12 01:09:22;;;;;;;82.17;18.67;;;6.90;98.90;;;;;;5020677;28;20646;-77
2023/11/12 01:11:53;;;;;;;29.50;15.87;;;6.90;99.00;;;;;;4990195;28;20246;-77
2023/11/12 01:14:21;;;;;;;148.77;20.30;;;7.00;99.20;;;;;;5007074;28;20200;-78
2023/11/12 01:16:49;;;;;;;68.37;18.87;;;7.00;99.20;;;;;;4993440;28;20294;-77
2023/11/12 01:19:16;;;;;;;82.73;18.73;;;7.10;99.20;;;;;;4997991;28;20207;-77
2023/11/12 01:21:44;;;;;;;72.27;18.20;;;7.10;99.20;;;;;;5005509;28;20219;-77
2023/11/12 01:24:11;;;;;;;121.60;23.27;;;7.10;99.20;;;;;;5007766;28;20215;-77
2023/11/12 01:26:38;;;;;;;38.40;21.00;;;7.00;99.30;;;;;;5009293;28;20531;-77
2023/11/12 01:29:05;;;;;;;84.47;19.60;;;7.00;99.30;;;;;;4993899;28;20208;-77
2023/11/12 01:31:33;;;;;;;63.90;19.20;;;7.10;99.40;;;;;;4998216;28;20215;-76
2023/11/12 01:34:01;;;;;;;89.90;19.53;;;7.10;99.50;;;;;;5022895;28;20238;-77
2023/11/12 01:36:28;;;;;;;46.93;19.87;;;7.20;99.60;;;;;;4995853;28;20208;-77
2023/11/12 01:38:58;;;;;;;44.60;21.47;;;7.20;99.60;;;;;;5000004;28;20211;-77
2023/11/12 01:41:26;;;;;;;53.47;22.47;;;7.20;99.60;;;;;;5012917;28;20242;-77
2023/11/12 01:43:53;;;;;;;74.43;24.13;;;7.20;99.70;;;;;;4997357;28;20208;-77
2023/11/12 01:46:22;;;;;;;85.57;22.43;;;7.20;99.70;;;;;;4998265;28;20718;-77
2023/11/12 01:48:49;;;;;;;129.90;24.53;;;7.30;99.80;;;;;;4972368;28;20205;-77
2023/11/12 01:51:18;;;;;;;132.57;25.57;;;7.30;99.80;;;;;;4984293;28;20235;-77
2023/11/12 01:53:46;;;;;;;92.53;25.90;;;7.30;99.70;;;;;;4970354;28;20212;-77
2023/11/12 01:56:16;;;;;;;94.93;25.63;;;7.30;99.70;;;;;;4985138;28;20627;-77
2023/11/12 01:58:44;;;;;;;130.87;24.50;;;7.40;99.80;;;;;;4997116;28;20665;-77
2023/11/12 02:01:13;;;;;;;102.30;23.27;;;7.40;99.90;;;;;;4976153;28;20233;-77
2023/11/12 02:03:42;;;;;;;86.10;23.13;;;7.40;99.90;;;;;;4989429;28;20242;-78
2023/11/12 02:06:12;;;;;;;152.60;25.23;;;7.40;99.90;;;;;;4971291;28;20638;-77
2023/11/12 02:08:41;;;;;;;108.53;22.63;;;7.40;99.90;;;;;;4985596;28;20645;-77
2023/11/12 02:11:11;;;;;;;213.17;24.83;;;7.40;99.90;;;;;;4992433;28;20229;-77
2023/11/12 02:13:42;;;;;;;111.47;24.83;;;7.40;99.90;;;;;;4975446;28;20304;-77
2023/11/12 02:16:12;;;;;;;190.03;25.80;;;7.40;99.80;;;;;;4982498;28;20276;-77
2023/11/12 02:18:46;;;;;;;86.67;22.23;;;7.30;99.80;;;;;;4982537;28;20232;-77
2023/11/12 02:21:24;;;;;;;82.77;22.63;;;7.30;99.80;;;;;;4966779;28;20646;-77
2023/11/12 02:24:05;;;;;;;87.33;20.90;;;7.30;99.80;;;;;;4975886;28;20222;-78
2023/11/12 02:26:33;;;;;;;57.00;21.63;;;7.30;99.80;;;;;;4971916;28;20219;-77
2023/11/12 02:29:00;;;;;;;65.50;21.40;;;7.30;99.80;;;;;;4974146;28;20220;-77
2023/11/12 02:31:28;;;;;;;67.87;22.67;;;7.30;99.80;;;;;;4986945;28;20223;-78
2023/11/12 02:33:57;;;;;;;90.83;24.10;;;7.30;99.90;;;;;;4974417;28;20201;-77
2023/11/12 02:36:26;;;;;;;65.67;24.67;;;7.30;99.90;;;;;;4973263;28;20204;-78
2023/11/12 02:38:53;;;;;;;379.20;29.33;;;7.30;99.90;;;;;;4971529;28;20197;-78
2023/11/12 02:41:23;;;;;;;112.93;27.43;;;7.30;99.90;;;;;;4967179;28;20216;-78
2023/11/12 02:43:50;;;;;;;107.77;26.27;;;7.30;99.90;;;;;;4967642;28;20280;-78
2023/11/12 02:46:17;;;;;;;154.57;26.37;;;7.30;99.90;;;;;;4975606;28;20700;-78
2023/11/12 02:49:03;;;;;;;119.17;26.23;;;7.30;99.90;;;;;;4991683;28;20217;-78
2023/11/12 02:51:30;;;;;;;68.23;26.30;;;7.30;99.90;;;;;;4982164;28;20634;-78
2023/11/12 02:53:58;;;;;;;71.60;25.20;;;7.30;99.90;;;;;;4993108;28;20533;-78
2023/11/12 02:56:25;;;;;;;152.27;25.70;;;7.30;99.90;;;;;;4975936;28;20219;-78
2023/11/12 02:58:54;;;;;;;99.23;24.97;;;7.40;99.90;;;;;;4992643;28;20208;-78
2023/11/12 03:01:22;;;;;;;89.63;26.50;;;7.40;99.90;;;;;;4975169;28;20241;-78
2023/11/12 03:03:50;;;;;;;190.90;27.00;;;7.40;99.90;;;;;;4990819;28;20205;-77
2023/11/12 03:06:18;;;;;;;103.63;24.73;;;7.40;99.90;;;;;;4992806;28;20205;-78
2023/11/12 03:08:45;;;;;;;138.00;26.80;;;7.50;99.90;;;;;;4991907;28;20657;-78
2023/11/12 03:11:13;;;;;;;74.40;24.20;;;7.50;99.90;;;;;;4970187;28;20319;-78
2023/11/12 03:13:40;;;;;;;90.10;24.97;;;7.50;99.90;;;;;;4964955;28;20647;-79
2023/11/12 03:16:09;;;;;;;75.33;24.60;;;7.50;99.90;;;;;;4990432;28;20208;-78
2023/11/12 03:18:37;;;;;;;62.60;26.27;;;7.50;99.90;;;;;;4988744;28;20209;-78
2023/11/12 03:21:05;;;;;;;50.30;25.00;;;7.50;99.90;;;;;;4994249;28;20220;-80
2023/11/12 03:23:33;;;;;;;106.43;26.97;;;7.60;99.90;;;;;;4964357;28;20271;-78
2023/11/12 03:26:01;;;;;;;56.67;23.70;;;7.60;99.90;;;;;;4977809;28;20630;-78
2023/11/12 03:28:31;;;;;;;52.73;24.57;;;7.60;99.90;;;;;;4992474;28;20216;-79
2023/11/12 03:30:59;;;;;;;73.23;25.70;;;7.70;99.90;;;;;;4978067;28;20326;-78
2023/11/12 03:33:28;;;;;;;86.33;25.57;;;7.70;99.90;;;;;;4993432;28;20208;-79
2023/11/12 03:35:57;;;;;;;70.53;24.50;;;7.70;99.90;;;;;;4979836;28;20206;-79
2023/11/12 03:38:26;;;;;;;51.50;23.67;;;7.80;99.90;;;;;;4995663;28;20639;-79
2023/11/12 03:40:55;;;;;;;96.57;26.07;;;7.80;99.90;;;;;;4974213;28;20232;-79
2023/11/12 03:43:23;;;;;;;84.87;27.03;;;7.80;99.90;;;;;;4985575;28;20209;-78
2023/11/12 03:45:51;;;;;;;141.20;27.47;;;7.80;99.90;;;;;;4994183;28;20315;-78
2023/11/12 03:48:21;;;;;;;59.87;22.70;;;7.80;99.90;;;;;;4977037;28;20223;-78
2023/11/12 03:50:49;;;;;;;104.80;26.13;;;7.80;99.90;;;;;;4972072;28;20211;-79
2023/11/12 03:53:21;;;;;;;102.37;28.90;;;7.80;99.90;;;;;;4991334;28;20220;-79
2023/11/12 03:55:51;;;;;;;93.77;25.60;;;7.80;99.90;;;;;;4975141;28;20714;-78
2023/11/12 03:58:19;;;;;;;107.50;25.33;;;7.80;99.90;;;;;;4973370;28;20264;-79
2023/11/12 04:00:47;;;;;;;103.37;24.43;;;7.80;99.90;;;;;;4971097;28;20225;-78
2023/11/12 04:03:17;;;;;;;71.60;23.13;;;7.80;99.90;;;;;;4968284;28;20713;-79
2023/11/12 04:05:45;;;;;;;74.90;24.57;;;7.80;99.90;;;;;;4976211;28;20202;-79
2023/11/12 04:08:14;;;;;;;65.90;25.27;;;7.80;99.90;;;;;;4986976;28;20205;-78
2023/11/12 04:10:41;;;;;;;83.77;23.77;;;7.80;99.90;;;;;;4973137;28;20239;-79
2023/11/12 04:13:12;;;;;;;121.37;25.13;;;7.80;99.90;;;;;;4972441;28;20628;-79
2023/11/12 04:15:41;;;;;;;112.67;27.33;;;7.80;99.90;;;;;;4995738;28;20233;-79
2023/11/12 04:18:10;;;;;;;164.77;26.30;;;7.80;99.90;;;;;;4977130;28;20205;-79
2023/11/12 04:20:38;;;;;;;53.07;25.97;;;7.80;99.90;;;;;;4983209;28;20205;-78
2023/11/12 04:23:05;;;;;;;91.23;26.83;;;7.80;99.90;;;;;;4988533;28;20219;-79
2023/11/12 04:25:32;;;;;;;57.47;22.57;;;7.70;99.90;;;;;;4981343;28;20659;-79
2023/11/12 04:28:00;;;;;;;71.77;25.27;;;7.70;99.90;;;;;;4971386;28;20208;-79
2023/11/12 04:30:27;;;;;;;62.23;23.77;;;7.70;99.90;;;;;;4971616;28;20221;-79
2023/11/12 04:32:55;;;;;;;77.50;24.70;;;7.70;99.90;;;;;;4981806;28;20315;-78
2023/11/12 04:35:22;;;;;;;71.57;23.30;;;7.70;99.90;;;;;;4990902;28;20213;-79
2023/11/12 04:37:50;;;;;;;55.40;23.50;;;7.70;99.90;;;;;;4972098;28;20209;-79
2023/11/12 04:40:18;;;;;;;49.53;23.93;;;7.60;99.90;;;;;;4989024;28;20292;-79
2023/11/12 04:42:46;;;;;;;39.70;24.20;;;7.60;99.90;;;;;;4986992;28;20613;-79
2023/11/12 04:45:14;;;;;;;38.10;23.07;;;7.60;99.90;;;;;;4994684;28;20318;-78
2023/11/12 04:47:41;;;;;;;38.37;23.80;;;7.60;99.90;;;;;;4997734;28;20298;-79
2023/11/12 04:50:09;;;;;;;62.47;23.77;;;7.60;99.90;;;;;;4996449;28;20219;-79
2023/11/12 04:52:44;;;;;;;61.70;24.87;;;7.60;99.90;;;;;;4999321;28;20293;-79
2023/11/12 04:55:14;;;;;;;40.13;24.50;;;7.60;99.90;;;;;;5007701;28;20577;-79
2023/11/12 04:57:42;;;;;;;34.13;23.83;;;7.60;99.90;;;;;;5015111;28;20200;-79
2023/11/12 05:00:11;;;;;;;33.40;23.90;;;7.60;99.90;;;;;;4998795;28;20207;-78
2023/11/12 05:02:40;;;;;;;57.63;24.97;;;7.60;99.90;;;;;;5009830;28;20227;-79
2023/11/12 05:05:08;;;;;;;46.43;26.03;;;7.60;99.90;;;;;;4995371;28;20219;-79
2023/11/12 05:07:35;;;;;;;53.60;26.53;;;7.60;99.90;;;;;;4987595;28;20538;-79
2023/11/12 05:10:05;;;;;;;41.27;24.43;;;7.70;99.90;;;;;;4995375;28;20237;-79
2023/11/12 05:12:33;;;;;;;35.00;24.93;;;7.60;99.90;;;;;;5009670;28;20290;-79
2023/11/12 05:15:01;;;;;;;34.93;25.00;;;7.70;99.90;;;;;;4998527;28;20208;-79
2023/11/12 05:17:28;;;;;;;37.30;25.13;;;7.70;99.90;;;;;;4994609;28;20630;-79
2023/11/12 05:19:56;;;;;;;44.03;25.97;;;7.70;99.90;;;;;;4992496;28;20218;-79
2023/11/12 05:22:24;;;;;;;41.90;24.90;;;7.70;99.90;;;;;;4991145;28;20215;-79
2023/11/12 05:24:51;;;;;;;32.33;25.20;;;7.80;99.90;;;;;;4993473;28;20246;-79
2023/11/12 05:27:21;;;;;;;38.07;24.63;;;7.80;99.90;;;;;;4999458;28;20555;-79
2023/11/12 05:29:49;;;;;;;40.67;26.10;;;7.80;99.90;;;;;;4996143;28;20228;-79
2023/11/12 05:32:17;;;;;;;42.53;25.57;;;7.80;99.90;;;;;;5002325;28;20271;-79
2023/11/12 05:34:44;;;;;;;37.37;24.93;;;7.90;99.90;;;;;;5011464;28;20684;-79
2023/11/12 05:37:12;;;;;;;37.57;24.97;;;7.90;99.90;;;;;;5011765;28;20271;-79
2023/11/12 05:39:39;;;;;;;35.77;24.73;;;7.90;99.90;;;;;;4997638;28;20212;-79
2023/11/12 05:42:06;;;;;;;35.40;24.53;;;7.90;99.90;;;;;;5015624;28;20728;-79
2023/11/12 05:44:34;;;;;;;50.00;26.23;;;7.90;99.90;;;;;;4991164;28;20200;-79
2023/11/12 05:47:02;;;;;;;35.93;25.43;;;7.90;99.90;;;;;;5008463;28;20349;-79
2023/11/12 05:49:29;;;;;;;45.00;25.40;;;7.90;99.90;;;;;;5003537;28;20311;-79
2023/11/12 05:51:56;;;;;;;57.13;25.77;;;7.90;99.90;;;;;;5006189;28;20228;-79
2023/11/12 05:54:24;;;;;;;50.97;23.60;;;7.90;99.90;;;;;;5008091;28;20200;-79
2023/11/12 05:56:52;;;;;;;36.30;25.27;;;7.90;99.90;;;;;;4987777;28;20680;-79
2023/11/12 05:59:20;;;;;;;36.43;26.33;;;7.90;99.90;;;;;;4997955;28;20274;-79
2023/11/12 06:01:48;;;;;;;36.77;25.10;;;7.90;99.90;;;;;;4997716;28;20219;-79
2023/11/12 06:04:23;;;;;;;36.40;25.50;;;7.90;99.90;;;;;;4996160;28;20208;-79
2023/11/12 06:06:56;;;;;;;37.33;25.93;;;7.90;99.90;;;;;;5015750;28;20211;-79
2023/11/12 06:09:24;;;;;;;36.27;25.90;;;7.90;99.90;;;;;;5005211;28;20211;-79
2023/11/12 06:11:53;;;;;;;40.17;26.83;;;8.00;99.90;;;;;;4997784;28;20243;-79
2023/11/12 06:14:22;;;;;;;40.90;27.80;;;8.00;99.90;;;;;;4992993;28;20220;-79
2023/11/12 06:16:50;;;;;;;33.73;25.30;;;8.00;99.90;;;;;;4997391;28;20204;-79
2023/11/12 06:19:21;;;;;;;42.47;27.30;;;8.00;99.90;;;;;;5013658;28;20301;-79
2023/11/12 06:21:49;;;;;;;36.40;25.40;;;8.10;99.90;;;;;;5012071;28;20657;-79
2023/11/12 06:24:19;;;;;;;39.23;26.57;;;8.10;99.90;;;;;;4995356;28;20219;-79
2023/11/12 06:26:49;;;;;;;43.47;27.73;;;8.10;99.90;;;;;;5025256;28;20223;-79
2023/11/12 06:29:17;;;;;;;40.90;27.03;;;8.10;99.90;;;;;;5012901;28;20211;-79
2023/11/12 06:31:45;;;;;;;43.13;27.23;;;8.10;99.90;;;;;;5011357;28;20317;-79
2023/11/12 06:34:15;;;;;;;45.03;29.30;;;8.20;99.90;;;;;;5008825;28;20219;-78
2023/11/12 06:36:44;;;;;;;72.30;29.00;;;8.20;99.90;;;;;;5012024;28;20207;-79
2023/11/12 06:39:14;;;;;;;61.83;30.10;;;8.20;99.90;;;;;;4987363;28;20547;-78
2023/11/12 06:41:44;;;;;;;49.20;28.60;;;8.20;99.90;;;;;;5004819;28;20216;-79
2023/11/12 06:44:12;;;;;;;87.40;30.30;;;8.20;99.90;;;;;;4993189;28;20218;-79
2023/11/12 06:46:46;;;;;;;126.30;32.37;;;8.20;99.90;;;;;;5002965;28;20263;-79
2023/11/12 06:49:17;;;;;;;60.80;29.57;;;8.20;99.90;;;;;;5003908;28;20209;-79
2023/11/12 06:51:44;;;;;;;57.63;30.80;;;8.20;99.90;;;;;;4972222;28;20226;-80
2023/11/12 06:54:15;;;;;;;62.17;30.67;;;8.30;99.90;;;;;;4987234;28;20300;-79
2023/11/12 06:56:45;;;;;;;55.50;29.17;;;8.30;99.90;;;;;;4980792;28;20202;-79
2023/11/12 06:59:17;;;;;;;65.00;31.20;;;8.30;99.90;;;;;;4995511;28;20201;-79
2023/11/12 07:01:48;;;;;;;56.80;29.80;;;8.30;99.90;;;;;;5001838;28;20216;-79
2023/11/12 07:04:17;;;;;;;56.07;29.80;;;8.40;99.90;;;;;;5000418;28;20274;-79
2023/11/12 07:06:45;;;;;;;55.73;31.90;;;8.40;99.90;;;;;;5000782;28;20207;-79
2023/11/12 07:09:35;;;;;;;54.87;31.07;;;8.50;99.90;;;;;;4985887;28;20214;-79
2023/11/12 07:12:07;;;;;;;68.73;32.87;;;8.50;99.90;;;;;;4986059;28;20228;-79
2023/11/12 07:14:36;;;;;;;62.80;34.00;;;8.60;99.90;;;;;;5000660;28;20216;-79
2023/11/12 07:17:06;;;;;;;59.23;33.60;;;8.60;99.90;;;;;;4982211;28;20602;-79
2023/11/12 07:19:36;;;;;;;63.87;33.80;;;8.70;99.90;;;;;;4990631;28;20300;-79
2023/11/12 07:22:04;;;;;;;59.33;32.53;;;8.70;99.90;;;;;;4995220;28;20221;-79
2023/11/12 07:24:36;;;;;;;58.03;33.53;;;8.70;99.90;;;;;;4991539;28;20213;-79
2023/11/12 07:27:04;;;;;;;66.67;32.63;;;8.70;99.90;;;;;;4998009;28;20309;-79
2023/11/12 07:29:33;;;;;;;62.60;31.80;;;8.80;99.90;;;;;;5000655;28;20218;-80
2023/11/12 07:32:02;;;;;;;71.00;32.63;;;8.80;99.90;;;;;;4998128;28;20227;-79
2023/11/12 07:34:30;;;;;;;58.53;31.30;;;8.90;99.90;;;;;;5001056;28;20238;-79
2023/11/12 07:37:03;;;;;;;63.83;33.83;;;8.90;99.90;;;;;;5001512;28;20211;-79
2023/11/12 07:39:32;;;;;;;62.13;31.53;;;8.90;99.90;;;;;;5011959;28;20208;-79
2023/11/12 07:42:01;;;;;;;64.20;32.53;;;9.00;99.90;;;;;;5001541;28;20257;-79
2023/11/12 07:44:29;;;;;;;66.97;33.70;;;9.00;99.90;;;;;;4982832;28;20208;-79
2023/11/12 07:46:57;;;;;;;59.00;33.37;;;9.00;99.90;;;;;;4992251;28;20299;-79
2023/11/12 07:49:29;;;;;;;58.97;32.37;;;9.00;99.90;;;;;;4985835;28;20205;-79
2023/11/12 07:52:05;;;;;;;54.43;32.07;;;9.10;99.90;;;;;;4975194;28;20239;-79
2023/11/12 07:54:33;;;;;;;57.57;30.63;;;9.10;99.90;;;;;;4982471;28;20655;-78
2023/11/12 07:57:02;;;;;;;46.80;28.33;;;9.10;99.90;;;;;;4975053;28;20205;-79
2023/11/12 07:59:34;;;;;;;48.90;29.03;;;9.10;99.90;;;;;;4989056;28;20204;-79
2023/11/12 08:02:07;;;;;;;55.33;30.47;;;9.10;99.90;;;;;;4993897;28;20215;-79
2023/11/12 08:04:37;;;;;;;55.13;30.40;;;9.10;99.90;;;;;;4984283;28;20208;-79
2023/11/12 08:07:06;;;;;;;57.03;31.20;;;9.10;99.90;;;;;;4985339;28;20539;-79
2023/11/12 08:09:36;;;;;;;60.63;32.50;;;9.10;99.90;;;;;;4989225;28;20265;-79
2023/11/12 08:12:10;;;;;;;54.73;32.73;;;9.10;99.90;;;;;;4975595;28;20273;-79
2023/11/12 08:14:44;;;;;;;52.33;30.93;;;9.10;99.90;;;;;;4984496;28;20230;-79
2023/11/12 08:17:14;;;;;;;53.43;31.77;;;9.10;99.90;;;;;;4993715;28;20200;-79
2023/11/12 08:19:48;;;;;;;43.10;28.80;;;9.20;99.90;;;;;;4975073;28;20543;-79
2023/11/12 08:22:16;;;;;;;42.60;29.53;;;9.20;99.90;;;;;;4990473;28;20220;-79
2023/11/12 08:24:44;;;;;;;41.93;28.80;;;9.20;99.90;;;;;;4987238;28;20288;-79
2023/11/12 08:27:13;;;;;;;46.47;29.73;;;9.30;99.90;;;;;;4986126;28;20246;-78
2023/11/12 08:29:41;;;;;;;44.37;28.40;;;9.30;99.90;;;;;;4970864;28;20635;-79
2023/11/12 08:32:11;;;;;;;42.67;27.57;;;9.40;99.90;;;;;;4989333;28;20233;-78
2023/11/12 08:34:39;;;;;;;44.67;29.30;;;9.40;99.90;;;;;;4987876;28;20546;-79
2023/11/12 08:37:07;;;;;;;42.60;28.23;;;9.40;99.90;;;;;;4987035;28;20271;-79
2023/11/12 08:39:36;;;;;;;39.60;28.23;;;9.50;99.90;;;;;;4987690;28;20250;-78
2023/11/12 08:42:11;;;;;;;42.70;28.13;;;9.50;99.90;;;;;;4984280;28;20221;-78
2023/11/12 08:44:40;;;;;;;46.20;29.43;;;9.60;99.90;;;;;;4991080;28;20224;-79
2023/11/12 08:47:10;;;;;;;43.60;28.83;;;9.60;99.90;;;;;;4983263;28;20240;-79
2023/11/12 08:49:39;;;;;;;39.17;28.37;;;9.70;99.90;;;;;;4975132;28;20238;-78
2023/11/12 08:52:08;;;;;;;40.73;29.23;;;9.80;99.90;;;;;;4986696;28;20223;-78
2023/11/12 08:54:36;;;;;;;39.80;28.80;;;9.80;99.90;;;;;;4968988;28;20206;-78
2023/11/12 08:57:04;;;;;;;38.10;26.13;;;9.90;99.90;;;;;;4989254;28;20245;-78
2023/11/12 08:59:34;;;;;;;44.13;27.03;;;10.00;99.90;;;;;;4979374;28;20218;-78
2023/11/12 09:02:06;;;;;;;36.60;25.97;;;10.00;99.90;;;;;;4989160;28;20211;-79
2023/11/12 09:04:38;;;;;;;37.17;27.40;;;10.10;99.90;;;;;;4987840;28;20653;-78
2023/11/12 09:07:08;;;;;;;36.97;26.40;;;10.20;99.90;;;;;;4989090;28;20369;-79
2023/11/12 09:09:39;;;;;;;40.07;26.70;;;10.30;99.90;;;;;;4988258;28;20206;-78
2023/11/12 09:12:11;;;;;;;33.93;24.40;;;10.40;99.90;;;;;;4990838;28;20200;-79
2023/11/12 09:14:40;;;;;;;30.47;24.43;;;10.50;99.90;;;;;;4990770;28;20212;-79
2023/11/12 09:17:12;;;;;;;34.60;24.33;;;10.60;99.90;;;;;;4978301;28;20727;-79
2023/11/12 09:19:43;;;;;;;31.40;23.87;;;10.70;99.90;;;;;;4974483;28;20517;-79
2023/11/12 09:22:11;;;;;;;31.53;22.97;;;10.80;99.90;;;;;;4978387;28;20216;-80
2023/11/12 09:24:46;;;;;;;30.63;21.87;;;10.90;99.90;;;;;;4982959;28;20205;-79
2023/11/12 09:27:36;;;;;;;29.63;21.83;;;11.00;99.90;;;;;;4986567;28;20207;-79
2023/11/12 09:30:04;;;;;;;34.03;22.73;;;11.00;99.90;;;;;;4948556;28;20261;-79
2023/11/12 09:32:36;;;;;;;28.00;22.17;;;11.10;99.70;;;;;;4990750;28;20546;-79
2023/11/12 09:35:06;;;;;;;27.13;20.33;;;11.10;99.40;;;;;;4987543;28;20523;-79
2023/11/12 09:37:36;;;;;;;28.67;21.50;;;11.20;99.30;;;;;;4984925;28;20294;-79
2023/11/12 09:40:10;;;;;;;29.37;20.93;;;11.30;99.10;;;;;;4968631;28;20264;-79
2023/11/12 09:42:41;;;;;;;28.63;20.47;;;11.30;98.90;;;;;;4992465;28;20210;-79
2023/11/12 09:45:11;;;;;;;25.10;19.63;;;11.40;98.60;;;;;;4990704;28;20227;-78
2023/11/12 09:47:54;;;;;;;26.83;19.77;;;11.40;98.40;;;;;;5010090;28;20302;-79
2023/11/12 09:50:26;;;;;;;27.20;20.27;;;11.40;98.40;;;;;;5028641;28;20302;-78
2023/11/12 09:53:03;;;;;;;30.00;20.60;;;11.40;98.40;;;;;;5014340;28;20226;-78
2023/11/12 09:55:32;;;;;;;25.70;18.27;;;11.40;98.30;;;;;;4991506;28;20233;-79
2023/11/12 09:58:03;;;;;;;26.27;17.93;;;11.50;98.40;;;;;;5006535;28;20857;-79
2023/11/12 10:00:35;;;;;;;21.40;17.37;;;11.60;98.50;;;;;;4997740;28;20288;-78
2023/11/12 10:03:07;;;;;;;21.43;16.83;;;11.70;98.20;;;;;;5008478;28;20648;-79
2023/11/12 10:05:38;;;;;;;22.13;16.33;;;11.90;98.00;;;;;;4996310;28;20219;-78
2023/11/12 10:08:07;;;;;;;21.10;17.07;;;12.00;97.80;;;;;;4991802;28;20215;-79
2023/11/12 10:10:36;;;;;;;20.67;15.73;;;12.00;97.50;;;;;;5015243;28;20605;-78
2023/11/12 10:13:06;;;;;;;20.67;15.37;;;12.10;97.20;;;;;;5000175;28;20226;-79
2023/11/12 10:15:35;;;;;;;21.87;16.43;;;12.10;97.00;;;;;;5007593;28;20238;-80
2023/11/12 10:18:03;;;;;;;19.47;15.37;;;12.20;97.00;;;;;;5009174;28;20206;-79
2023/11/12 10:20:40;;;;;;;20.13;14.57;;;12.30;96.90;;;;;;5012602;28;20216;-79
2023/11/12 10:23:24;;;;;;;20.37;14.57;;;12.30;96.50;;;;;;4994096;28;20218;-79
2023/11/12 10:26:02;;;;;;;16.57;13.40;;;12.30;96.30;;;;;;4992410;28;20210;-79
2023/11/12 10:28:35;;;;;;;17.90;13.43;;;12.30;96.20;;;;;;5013764;28;20211;-79
2023/11/12 10:31:07;;;;;;;19.20;15.00;;;12.30;96.10;;;;;;4994509;28;20225;-80
2023/11/12 10:33:36;;;;;;;18.30;14.93;;;12.30;96.20;;;;;;5005931;28;20241;-80
2023/11/12 10:36:08;;;;;;;20.50;15.27;;;12.20;96.20;;;;;;4995578;28;20235;-79
2023/11/12 10:38:47;;;;;;;18.93;14.47;;;12.20;96.20;;;;;;4992027;28;20280;-79
2023/11/12 10:41:19;;;;;;;17.73;14.67;;;12.20;96.10;;;;;;5005637;28;20221;-79
2023/11/12 10:43:58;;;;;;;18.47;14.97;;;12.20;96.10;;;;;;4994319;28;20534;-79
2023/11/12 10:46:29;;;;;;;19.07;14.80;;;12.20;96.00;;;;;;4998604;28;20701;-79
2023/11/12 10:48:57;;;;;;;19.93;15.50;;;12.30;96.10;;;;;;4992169;28;20211;-80
2023/11/12 10:51:26;;;;;;;22.53;17.50;;;12.30;96.20;;;;;;4984696;28;20222;-79
2023/11/12 10:53:58;;;;;;;22.70;16.97;;;12.50;96.30;;;;;;4980249;28;20225;-78
2023/11/12 10:56:28;;;;;;;21.93;16.17;;;12.70;96.30;;;;;;4989982;28;20624;-79
2023/11/12 10:59:00;;;;;;;18.00;15.03;;;12.90;96.30;;;;;;4973082;28;20205;-78
2023/11/12 11:01:34;;;;;;;15.80;13.50;;;13.10;95.80;;;;;;4968781;28;20245;-79
2023/11/12 11:04:06;;;;;;;16.90;13.70;;;13.10;95.10;;;;;;4994551;28;20211;-79
2023/11/12 11:06:36;;;;;;;19.17;14.63;;;13.10;94.30;;;;;;4974734;28;20220;-78
2023/11/12 11:16:07;;;;;;;16.83;13.77;;;12.70;94.00;;;;;;5104217;27;20575;-80
2023/11/12 11:19:01;;;;;;;17.93;13.77;;;12.70;94.40;;;;;;5087282;28;20282;-78
2023/11/12 11:21:37;;;;;;;18.70;13.37;;;12.90;94.50;;;;;;5104728;28;20612;-79
2023/11/12 11:24:09;;;;;;;17.90;14.30;;;13.00;94.30;;;;;;5111037;27;20290;-79
2023/11/12 11:26:42;;;;;;;17.00;14.07;;;13.10;93.90;;;;;;5092899;28;20232;-79
2023/11/12 11:29:12;;;;;;;14.73;12.87;;;13.00;93.70;;;;;;5106825;28;20202;-78
2023/11/12 11:32:01;;;;;;;16.37;12.70;;;13.00;93.80;;;;;;5106235;28;20281;-79
2023/11/12 11:34:40;;;;;;;16.53;11.97;;;13.00;93.90;;;;;;5102864;28;20205;-78
2023/11/12 11:37:09;;;;;;;14.70;12.87;;;13.00;93.80;;;;;;5098077;28;20286;-79
2023/11/12 11:39:39;;;;;;;15.90;12.90;;;13.00;93.80;;;;;;5106056;28;20199;-78
2023/11/12 11:42:10;;;;;;;17.23;12.97;;;13.00;93.70;;;;;;5092896;28;20226;-78
2023/11/12 11:47:23;;;;;;;17.93;13.10;;;13.20;93.80;;;;;;5098575;28;20208;-78
2023/11/12 11:50:10;;;;;;;14.47;12.73;;;13.40;93.70;;;;;;5107027;28;20199;-78
2023/11/12 11:52:42;;;;;;;14.77;12.00;;;13.40;93.20;;;;;;5103530;28;20556;-79
2023/11/12 11:55:29;;;;;;;14.67;11.70;;;13.30;93.10;;;;;;5106273;28;20226;-79
2023/11/12 12:01:00;;;;;;;13.20;11.53;;;13.30;93.20;;;;;;5103925;27;20566;-79
2023/11/12 12:03:29;;;;;;;13.57;10.83;;;13.40;93.40;;;;;;5089722;28;20606;-79
2023/11/12 12:05:57;;;;;;;15.97;11.20;;;13.40;93.30;;;;;;5101051;28;20214;-79
2023/11/12 12:08:25;;;;;;;14.13;12.10;;;13.40;93.30;;;;;;5108489;28;20521;-79
2023/11/12 12:10:52;;;;;;;14.50;11.30;;;13.40;93.30;;;;;;5090061;28;20704;-79
2023/11/12 12:13:22;;;;;;;16.20;11.20;;;13.40;93.20;;;;;;5106779;28;20618;-79
2023/11/12 12:15:53;;;;;;;15.23;11.47;;;13.30;93.20;;;;;;5089131;28;20211;-79
2023/11/12 12:18:25;;;;;;;12.93;11.43;;;13.30;93.20;;;;;;5105088;28;20236;-79
2023/11/12 12:20:54;;;;;;;14.00;12.50;;;13.30;93.30;;;;;;5098368;28;20248;-79
2023/11/12 12:23:25;;;;;;;17.77;13.37;;;13.30;93.40;;;;;;5096945;28;20197;-79
2023/11/12 12:25:54;;;;;;;15.03;12.57;;;13.30;93.50;;;;;;5102254;28;20230;-79
2023/11/12 12:28:29;;;;;;;16.80;12.73;;;13.30;93.60;;;;;;5100199;28;20207;-80
2023/11/12 12:30:57;;;;;;;16.17;13.30;;;13.30;93.60;;;;;;5101149;28;20237;-80
2023/11/12 12:33:25;;;;;;;17.80;14.10;;;13.40;93.80;;;;;;5107093;28;20684;-79
2023/11/12 12:36:00;;;;;;;16.97;14.43;;;13.50;93.90;;;;;;5094326;28;20209;-80
2023/11/12 12:38:28;;;;;;;15.40;13.43;;;13.70;94.00;;;;;;5100362;28;20257;-79
2023/11/12 12:41:03;;;;;;;14.00;12.27;;;14.00;93.90;;;;;;5102535;28;20200;-79
2023/11/12 12:43:50;;;;;;;17.17;13.43;;;14.20;93.50;;;;;;5091198;28;20216;-79
2023/11/12 12:46:20;;;;;;;16.50;13.10;;;14.40;93.00;;;;;;5096157;28;20506;-79
2023/11/12 12:48:56;;;;;;;15.43;13.23;;;14.60;92.90;;;;;;5102737;28;20205;-79
2023/11/12 12:51:24;;;;;;;16.53;14.37;;;14.80;92.80;;;;;;5107353;28;20206;-80
2023/11/12 12:53:54;;;;;;;14.87;12.87;;;15.00;92.40;;;;;;5090303;28;20236;-80
2023/11/12 12:56:22;;;;;;;20.00;13.60;;;15.20;92.20;;;;;;5098119;28;20207;-79
2023/11/12 12:58:55;;;;;;;17.00;11.93;;;15.30;91.80;;;;;;5091905;28;20260;-79